Bylas, Arizona
Current Conditions -  °F | °C
As of 8:51 PM on Wednesday 22 Oct 2014 (Local Time) from KSAD Reporting Station
Clear Clear  
Wind Chill: 65°   Ceiling: Unl
Heat Index: 65°   Visibility: 10mi
Dew Point: 53°   Wind: 6mph
Humidity: 65%   Direction: 110°ESE
Pressure: 30.05"   Gusts: NA
Location:  33.14°N, 110.13°W
Report Text: KSAD 230351Z AUTO 11005KT 10SM CLR 18/12 A3005 RMK AO2 SLP137 T01830117
Loading
Personal Weather Stations






























Interactive Weather Map
Tropical Storm Tracking
New forecast layout! Learn more

10-Day Weather Forecast

Advertisements
Track Severe Weather on mobile